New York, New York
Traffic Map
Current Weather Conditions
New York, New York
Clear
Clear

Feels Like: 4°
Wind Chill: Ceiling: Unl
Heat Index: Visibility: 10mi
Dew Point: Wind: 7mph
Humidity: 76% Direction: 240° (WSW)
Pressure: 30.29in Gusts: 0mph
Raw Report DataKJRB 190435Z AUTO 24006KT 10SM CLR 06/02 A3029 RMK AO1
Traffic Incident Summary
Active as of:
Severity:
Category:
InformationThere was an issue retrieving the traffic information for this location. Please try a different location or try again shortly.
Advertisements
At Last! Intellicast now available for iPhone and Android